Time;durP1;ratioP1;P1;durP2;ratioP2;P2;SDS_P1;SDS_P2;PMS_P1;PMS_P2;Temp;Humidity;BMP_temperature;BMP_pressure;BME280_temperature;BME280_humidity;BME280_pressure;Samples;Min_cycle;Max_cycle;Signal;HPM_P1;HPM_P2
2023/09/17 00:01:55;;;;;;;96.13;41.63;;;;;;;;;;5012675;28;20038;-71
2023/09/17 00:04:21;;;;;;;95.40;46.10;;;;;;;;;;5013001;28;20385;-71
2023/09/17 00:06:47;;;;;;;94.47;43.60;;;;;;;;;;5012241;28;20150;-72
2023/09/17 00:09:13;;;;;;;87.17;41.20;;;;;;;;;;5015216;28;20116;-71
2023/09/17 00:11:39;;;;;;;94.90;42.35;;;;;;;;;;5016329;28;20052;-70
2023/09/17 00:14:06;;;;;;;96.40;43.07;;;;;;;;;;5015790;28;20034;-71
2023/09/17 00:16:32;;;;;;;88.82;41.42;;;;;;;;;;5015807;28;20128;-71
2023/09/17 00:18:58;;;;;;;90.57;40.87;;;;;;;;;;5017138;28;20092;-70
2023/09/17 00:21:24;;;;;;;94.10;41.60;;;;;;;;;;5016661;28;20046;-71
2023/09/17 00:23:50;;;;;;;91.67;41.17;;;;;;;;;;5016451;28;20135;-71
2023/09/17 00:26:16;;;;;;;87.77;40.53;;;;;;;;;;5015416;28;20042;-71
2023/09/17 00:28:42;;;;;;;88.97;42.03;;;;;;;;;;5015546;28;20284;-71
2023/09/17 00:31:08;;;;;;;87.73;40.27;;;;;;;;;;5016368;28;20106;-71
2023/09/17 00:33:35;;;;;;;85.63;39.90;;;;;;;;;;5016458;28;20382;-71
2023/09/17 00:36:01;;;;;;;83.07;38.50;;;;;;;;;;5016257;28;20053;-70
2023/09/17 00:38:27;;;;;;;87.40;39.43;;;;;;;;;;5015902;28;20044;-71
2023/09/17 00:40:53;;;;;;;83.83;39.50;;;;;;;;;;5016198;28;20096;-71
2023/09/17 00:43:19;;;;;;;84.15;39.20;;;;;;;;;;5016235;28;20042;-71
2023/09/17 00:45:46;;;;;;;80.28;36.78;;;;;;;;;;5014944;28;20381;-72
2023/09/17 00:48:12;;;;;;;82.38;38.40;;;;;;;;;;5015585;28;20472;-71
2023/09/17 00:50:39;;;;;;;87.53;38.47;;;;;;;;;;5016023;28;20085;-72
2023/09/17 00:53:05;;;;;;;80.35;37.20;;;;;;;;;;5015922;28;20052;-71
2023/09/17 00:55:33;;;;;;;80.95;39.30;;;;;;;;;;4998974;28;20048;-71
2023/09/17 00:58:00;;;;;;;76.43;36.78;;;;;;;;;;5016101;28;20049;-71
2023/09/17 01:00:27;;;;;;;76.55;36.38;;;;;;;;;;5015187;28;20042;-70
2023/09/17 01:02:54;;;;;;;73.32;35.67;;;;;;;;;;5015635;28;20049;-70
2023/09/17 01:05:21;;;;;;;73.82;36.22;;;;;;;;;;5015676;28;20108;-71
2023/09/17 01:07:47;;;;;;;76.28;36.35;;;;;;;;;;5016593;28;20370;-70
2023/09/17 01:10:14;;;;;;;75.88;37.83;;;;;;;;;;5014473;28;20057;-71
2023/09/17 01:12:41;;;;;;;77.18;36.80;;;;;;;;;;5015489;28;20045;-71
2023/09/17 01:15:08;;;;;;;84.47;38.95;;;;;;;;;;5014420;28;20485;-71
2023/09/17 01:17:34;;;;;;;76.57;37.35;;;;;;;;;;5014262;28;20085;-71
2023/09/17 01:20:13;;;;;;;81.50;38.23;;;;;;;;;;5014587;28;20050;-71
2023/09/17 01:22:41;;;;;;;76.03;36.63;;;;;;;;;;5015779;28;20498;-71
2023/09/17 01:25:13;;;;;;;79.32;37.05;;;;;;;;;;5013898;28;20037;-71
2023/09/17 01:27:39;;;;;;;79.90;37.45;;;;;;;;;;5015396;28;20056;-70
2023/09/17 01:30:15;;;;;;;78.57;37.50;;;;;;;;;;5015242;28;20052;-71
2023/09/17 01:32:42;;;;;;;78.77;36.83;;;;;;;;;;5015599;28;20049;-72
2023/09/17 01:35:08;;;;;;;;;;;;;;;;;;5015551;28;20053;-71
2023/09/17 01:37:36;;;;;;;84.13;36.70;;;;;;;;;;5015976;28;20009;-71
2023/09/17 01:40:10;;;;;;;77.65;38.15;;;;;;;;;;5015079;28;20049;-72
2023/09/17 01:42:38;;;;;;;78.00;36.50;;;;;;;;;;5013548;28;20041;-77
2023/09/17 01:45:05;;;;;;;86.00;37.30;;;;;;;;;;5014740;28;20042;-77
2023/09/17 01:47:32;;;;;;;75.35;36.30;;;;;;;;;;5014873;28;20107;-76
2023/09/17 01:50:00;;;;;;;74.97;36.28;;;;;;;;;;5013872;28;20054;-76
2023/09/17 01:52:32;;;;;;;77.68;36.88;;;;;;;;;;5013550;28;20092;-77
2023/09/17 01:54:58;;;;;;;77.72;36.33;;;;;;;;;;5014904;28;20085;-78
2023/09/17 01:57:24;;;;;;;82.57;38.25;;;;;;;;;;5014427;28;20505;-77
2023/09/17 01:59:50;;;;;;;82.97;36.20;;;;;;;;;;5015549;28;20038;-77
2023/09/17 02:02:16;;;;;;;79.27;35.87;;;;;;;;;;5015340;28;20053;-77
2023/09/17 02:04:42;;;;;;;79.97;36.63;;;;;;;;;;5014690;28;20038;-76
2023/09/17 02:07:09;;;;;;;70.47;34.57;;;;;;;;;;5014543;28;20085;-76
2023/09/17 02:09:35;;;;;;;80.20;36.78;;;;;;;;;;5014546;28;20054;-76
2023/09/17 02:12:01;;;;;;;78.47;35.43;;;;;;;;;;5013939;28;20056;-77
2023/09/17 02:14:27;;;;;;;75.40;37.13;;;;;;;;;;5013298;28;20045;-77
2023/09/17 02:16:54;;;;;;;79.07;36.97;;;;;;;;;;5014542;28;20284;-77
2023/09/17 02:19:20;;;;;;;76.45;36.90;;;;;;;;;;5014142;28;20507;-76
2023/09/17 02:21:46;;;;;;;78.63;36.20;;;;;;;;;;5015236;28;20091;-76
2023/09/17 02:24:12;;;;;;;75.30;37.23;;;;;;;;;;5013161;28;20038;-77
2023/09/17 02:26:39;;;;;;;80.63;38.80;;;;;;;;;;5014266;28;20139;-77
2023/09/17 02:29:06;;;;;;;79.70;36.72;;;;;;;;;;5014758;28;20042;-77
2023/09/17 02:31:32;;;;;;;83.35;38.33;;;;;;;;;;5013662;28;20401;-77
2023/09/17 02:33:58;;;;;;;74.72;35.95;;;;;;;;;;5014166;28;20085;-77
2023/09/17 02:36:24;;;;;;;83.53;37.10;;;;;;;;;;5012841;28;20038;-77
2023/09/17 02:38:50;;;;;;;80.17;36.97;;;;;;;;;;5014075;28;20038;-77
2023/09/17 02:41:17;;;;;;;82.30;39.05;;;;;;;;;;5014043;28;20284;-77
2023/09/17 02:43:43;;;;;;;80.10;39.00;;;;;;;;;;5014040;28;20041;-77
2023/09/17 02:46:09;;;;;;;77.55;35.28;;;;;;;;;;5012631;28;20046;-75
2023/09/17 02:48:35;;;;;;;76.40;37.40;;;;;;;;;;5013315;28;20157;-77
2023/09/17 02:51:04;;;;;;;73.40;35.50;;;;;;;;;;5013926;28;20054;-78
2023/09/17 02:53:30;;;;;;;75.22;36.50;;;;;;;;;;5013747;28;20093;-77
2023/09/17 02:55:57;;;;;;;73.13;35.50;;;;;;;;;;5013845;28;20052;-77
2023/09/17 02:58:23;;;;;;;79.60;35.85;;;;;;;;;;5013279;28;20045;-76
2023/09/17 03:00:49;;;;;;;78.43;35.28;;;;;;;;;;5013624;28;20350;-77
2023/09/17 03:03:15;;;;;;;70.47;34.42;;;;;;;;;;5013931;28;20122;-77
2023/09/17 03:05:41;;;;;;;68.83;34.53;;;;;;;;;;5012498;28;20034;-77
2023/09/17 03:08:09;;;;;;;71.70;33.97;;;;;;;;;;5012520;28;20042;-77
2023/09/17 03:10:42;;;;;;;72.70;34.17;;;;;;;;;;5014225;28;20057;-76
2023/09/17 03:13:10;;;;;;;71.72;33.83;;;;;;;;;;5013414;28;20055;-78
2023/09/17 03:15:36;;;;;;;75.38;36.47;;;;;;;;;;5012609;28;20045;-78
2023/09/17 03:18:02;;;;;;;75.97;34.97;;;;;;;;;;5012874;28;20053;-77
2023/09/17 03:20:33;;;;;;;75.00;34.87;;;;;;;;;;5012347;28;20096;-77
2023/09/17 03:23:00;;;;;;;77.25;34.53;;;;;;;;;;5013632;28;20100;-78
2023/09/17 03:25:27;;;;;;;75.22;34.97;;;;;;;;;;5011985;28;20544;-77
2023/09/17 03:27:54;;;;;;;72.03;34.20;;;;;;;;;;5014028;28;20077;-77
2023/09/17 03:30:21;;;;;;;76.75;35.38;;;;;;;;;;5012813;28;20112;-77
2023/09/17 03:32:47;;;;;;;76.80;34.50;;;;;;;;;;5013531;28;20049;-78
2023/09/17 03:35:13;;;;;;;76.68;36.35;;;;;;;;;;5013487;28;20046;-77
2023/09/17 03:37:39;;;;;;;73.03;34.40;;;;;;;;;;5012156;28;20434;-77
2023/09/17 03:40:12;;;;;;;70.85;33.20;;;;;;;;;;5013233;28;20114;-77
2023/09/17 03:42:38;;;;;;;73.75;34.75;;;;;;;;;;5012370;28;20045;-77
2023/09/17 03:45:05;;;;;;;77.03;34.85;;;;;;;;;;5017129;28;20361;-78
2023/09/17 03:47:32;;;;;;;77.50;34.17;;;;;;;;;;5016987;28;20049;-77
2023/09/17 03:49:58;;;;;;;80.15;34.92;;;;;;;;;;5017100;28;20132;-77
2023/09/17 03:52:25;;;;;;;77.43;35.35;;;;;;;;;;5016978;28;20075;-77
2023/09/17 03:54:52;;;;;;;79.80;35.47;;;;;;;;;;5015572;28;20474;-76
2023/09/17 03:57:18;;;;;;;72.40;33.35;;;;;;;;;;5017003;28;20149;-76
2023/09/17 03:59:44;;;;;;;83.03;37.17;;;;;;;;;;4999394;28;20049;-75
2023/09/17 04:02:10;;;;;;;82.07;36.83;;;;;;;;;;5017018;28;20037;-77
2023/09/17 04:04:36;;;;;;;89.45;37.35;;;;;;;;;;4999936;28;20635;-76
2023/09/17 04:07:03;;;;;;;82.27;36.77;;;;;;;;;;5016826;28;20116;-77
2023/09/17 04:09:30;;;;;;;92.47;42.00;;;;;;;;;;5016588;28;20301;-76
2023/09/17 04:11:58;;;;;;;93.10;39.70;;;;;;;;;;5016675;28;20085;-77
2023/09/17 04:14:24;;;;;;;87.35;39.08;;;;;;;;;;5017406;28;20038;-77
2023/09/17 04:16:50;;;;;;;89.90;39.37;;;;;;;;;;5016609;28;20049;-78
2023/09/17 04:19:16;;;;;;;92.43;40.70;;;;;;;;;;5016609;28;20084;-77
2023/09/17 04:21:42;;;;;;;95.15;39.60;;;;;;;;;;5016471;28;20108;-77
2023/09/17 04:24:12;;;;;;;99.20;40.30;;;;;;;;;;5016941;28;20137;-76
2023/09/17 04:26:38;;;;;;;98.25;41.38;;;;;;;;;;5016627;28;20512;-76
2023/09/17 04:29:04;;;;;;;100.63;43.40;;;;;;;;;;5015191;28;20069;-75
2023/09/17 04:31:31;;;;;;;100.68;43.60;;;;;;;;;;5016318;28;20129;-75
2023/09/17 04:33:58;;;;;;;106.60;42.90;;;;;;;;;;5016359;28;20115;-77
2023/09/17 04:36:24;;;;;;;98.20;41.38;;;;;;;;;;5016774;28;20049;-76
2023/09/17 04:38:51;;;;;;;109.47;45.13;;;;;;;;;;5016001;28;20042;-77
2023/09/17 04:41:17;;;;;;;112.15;45.17;;;15.50;99.90;;;;;;5015904;28;20573;-76
2023/09/17 04:43:44;;;;;;;110.25;44.80;;;;;;;;;;5016109;28;20048;-78
2023/09/17 04:46:10;;;;;;;103.87;43.20;;;;;;;;;;4999451;28;20077;-76
2023/09/17 04:48:37;;;;;;;97.32;40.58;;;;;;;;;;5016085;28;20289;-73
2023/09/17 04:51:03;;;;;;;96.95;41.58;;;;;;;;;;5000170;28;20050;-76
2023/09/17 04:53:29;;;;;;;102.80;42.10;;;;;;;;;;4999520;28;20381;-76
2023/09/17 04:55:55;;;;;;;96.63;39.72;;;;;;;;;;5015591;28;20339;-77
2023/09/17 04:58:21;;;;;;;102.53;41.70;;;;;;;;;;5015880;28;20044;-77
2023/09/17 05:00:48;;;;;;;96.73;40.40;;;;;;;;;;4998324;28;20093;-77
2023/09/17 05:03:15;;;;;;;120.18;50.67;;;;;;;;;;4998694;28;20041;-76
2023/09/17 05:05:41;;;;;;;112.63;46.13;;;;;;;;;;5014411;28;20504;-77
2023/09/17 05:08:07;;;;;;;109.65;44.00;;;;;;;;;;5015601;28;20056;-76
2023/09/17 05:10:33;;;;;;;110.32;42.78;;;;;;;;;;5015724;28;20058;-77
2023/09/17 05:13:00;;;;;;;108.78;44.28;;;;;;;;;;5014308;28;20192;-77
2023/09/17 05:15:26;;;;;;;116.70;48.45;;;;;;;;;;5015212;28;20102;-78
2023/09/17 05:17:54;;;;;;;122.27;45.77;;;;;;;;;;5014748;28;20053;-78
2023/09/17 05:20:21;;;;;;;115.57;44.65;;;;;;;;;;5015341;28;20163;-77
2023/09/17 05:22:48;;;;;;;111.32;45.13;;;;;;;;;;5015284;28;20050;-76
2023/09/17 05:25:14;;;;;;;128.48;46.85;;;;;;;;;;5015298;28;20046;-75
2023/09/17 05:27:40;;;;;;;127.67;48.57;;;;;;;;;;5015138;28;20065;-75
2023/09/17 05:30:08;;;;;;;137.98;51.25;;;;;;;;;;5015149;28;20454;-75
2023/09/17 05:32:34;;;;;;;130.50;48.63;;;;;;;;;;5013860;28;20049;-74
2023/09/17 05:35:02;;;;;;;147.43;53.93;;;;;;;;;;5014102;28;20354;-76
2023/09/17 05:37:28;;;;;;;149.02;55.95;;;;;;;;;;5014661;28;20289;-76
2023/09/17 05:39:54;;;;;;;154.50;55.05;;;;;;;;;;5014665;28;20045;-76
2023/09/17 05:42:20;;;;;;;149.20;55.43;;;15.80;99.90;;;;;;5014923;28;20042;-76
2023/09/17 05:44:46;;;;;;;151.35;58.50;;;15.80;99.90;;;;;;5014745;28;20033;-76
2023/09/17 05:47:12;;;;;;;152.00;54.97;;;15.90;99.90;;;;;;5014805;28;20042;-75
2023/09/17 05:49:37;;;;;;;150.40;52.72;;;16.20;99.90;;;;;;5014766;28;20390;-75
2023/09/17 05:52:03;;;;;;;157.43;55.83;;;15.90;99.90;;;;;;5014438;28;20358;-76
2023/09/17 05:54:31;;;;;;;160.35;54.33;;;;;;;;;;5013510;28;20155;-76
2023/09/17 05:56:57;;;;;;;167.30;62.45;;;;;;;;;;5015051;28;20049;-76
2023/09/17 05:59:23;;;;;;;157.83;56.77;;;;;;;;;;5013401;28;20496;-76
2023/09/17 06:01:50;;;;;;;176.50;63.67;;;;;;;;;;5013402;28;20426;-76
2023/09/17 06:04:16;;;;;;;170.05;60.92;;;;;;;;;;4997834;28;20471;-75
2023/09/17 06:06:42;;;;;;;179.87;65.33;;;;;;;;;;5014029;28;20045;-74
2023/09/17 06:09:09;;;;;;;177.52;59.63;;;;;;;;;;5014801;28;20045;-74
2023/09/17 06:11:35;;;;;;;192.75;68.40;;;;;;;;;;5014558;28;20057;-74
2023/09/17 06:14:01;;;;;;;180.25;63.80;;;;;;;;;;5013684;28;20058;-74
2023/09/17 06:16:27;;;;;;;171.47;60.03;;;;;;;;;;5013754;28;20077;-75
2023/09/17 06:18:54;;;;;;;173.73;62.63;;;;;;;;;;5013919;28;20053;-74
2023/09/17 06:21:20;;;;;;;176.10;62.40;;;;;;;;;;5014744;28;20049;-74
2023/09/17 06:23:47;;;;;;;163.20;58.35;;;;;;;;;;5014164;28;20045;-73
2023/09/17 06:26:13;;;;;;;175.38;63.42;;;;;;;;;;5014187;28;20041;-74
2023/09/17 06:28:39;;;;;;;173.57;60.17;;;;;;;;;;4997041;28;20385;-74
2023/09/17 06:31:05;;;;;;;171.18;59.60;;;;;;;;;;5013826;28;20442;-74
2023/09/17 06:33:31;;;;;;;172.80;58.87;;;;;;;;;;5013631;28;20092;-74
2023/09/17 06:35:57;;;;;;;197.77;67.68;;;;;;;;;;5012636;28;20347;-74
2023/09/17 06:38:24;;;;;;;186.95;62.22;;;;;;;;;;5013502;28;20473;-72
2023/09/17 06:40:50;;;;;;;190.10;61.50;;;;;;;;;;5013887;28;20083;-72
2023/09/17 06:43:16;;;;;;;195.17;68.50;;;;;;;;;;4996519;28;20111;-74
2023/09/17 06:45:42;;;;;;;195.30;64.83;;;;;;;;;;5013741;28;20041;-74
2023/09/17 06:48:08;;;;;;;187.83;64.00;;;;;;;;;;5012793;28;20046;-73
2023/09/17 06:50:34;;;;;;;206.17;69.43;;;;;;;;;;5013518;28;20042;-74
2023/09/17 06:53:00;;;;;;;217.02;68.18;;;;;;;;;;5012519;28;20328;-73
2023/09/17 06:55:26;;;;;;;221.43;66.20;;;;;;;;;;4996465;28;20052;-73
2023/09/17 06:57:53;;;;;;;239.60;72.50;;;;;;;;;;5013579;28;20042;-74
2023/09/17 07:00:20;;;;;;;211.63;65.32;;;;;;;;;;5013623;28;20099;-74
2023/09/17 07:02:49;;;;;;;228.23;70.63;;;;;;;;;;5012336;28;20102;-73
2023/09/17 07:05:15;;;;;;;224.67;71.30;;;;;;;;;;5013447;28;20038;-73
2023/09/17 07:07:41;;;;;;;210.38;66.93;;;;;;;;;;5013270;28;20107;-73
2023/09/17 07:10:07;;;;;;;228.10;70.47;;;;;;;;;;5012004;28;20050;-73
2023/09/17 07:12:40;;;;;;;225.57;71.10;;;;;;;;;;4996086;28;20515;-73
2023/09/17 07:15:06;;;;;;;251.25;73.28;;;;;;;;;;5013726;28;20374;-72
2023/09/17 07:17:33;;;;;;;224.57;67.90;;;;;;;;;;5013947;28;20448;-74
2023/09/17 07:19:59;;;;;;;233.23;68.38;;;;;;;;;;5017486;28;20386;-72
2023/09/17 07:22:25;;;;;;;221.67;69.23;;;;;;;;;;5016318;28;20046;-73
2023/09/17 07:24:56;;;;;;;219.00;69.47;;;;;;;;;;5017948;28;20387;-74
2023/09/17 07:27:22;;;;;;;220.43;74.68;;;;;;;;;;5017341;28;20454;-74
2023/09/17 07:29:48;;;;;;;214.13;69.28;;;;;;;;;;5018050;28;20085;-73
2023/09/17 07:32:14;;;;;;;222.77;72.60;;;;;;;;;;5018837;28;20132;-75
2023/09/17 07:34:40;;;;;;;226.18;71.20;;;;;;;;;;5017516;28;20041;-73
2023/09/17 07:37:06;;;;;;;218.40;71.70;;;;;;;;;;5017170;28;20042;-74
2023/09/17 07:39:33;;;;;;;229.02;73.22;;;;;;;;;;5017276;28;20046;-74
2023/09/17 07:41:59;;;;;;;236.53;72.17;;;;;;;;;;5017075;28;20107;-73
2023/09/17 07:44:25;;;;;;;227.57;68.90;;;;;;;;;;5017592;28;20331;-75
2023/09/17 07:46:51;;;;;;;236.70;76.70;;;;;;;;;;5016215;28;20048;-72
2023/09/17 07:49:17;;;;;;;235.63;72.27;;;;;;;;;;4999499;28;20042;-72
2023/09/17 07:51:44;;;;;;;240.38;71.65;;;;;;;;;;5015857;28;20056;-73
2023/09/17 07:54:10;;;;;;;224.27;69.55;;;;;;;;;;5016738;28;20042;-72
2023/09/17 07:56:36;;;;;;;222.17;71.33;;;;;;;;;;5016853;28;20045;-73
2023/09/17 07:59:03;;;;;;;227.23;80.13;;;;;;;;;;5015683;28;20049;-74
2023/09/17 08:01:30;;;;;;;218.43;69.90;;;;;;;;;;5015948;28;20085;-73
2023/09/17 08:03:56;;;;;;;;;;;;;;;;;;5017105;28;20050;-74
2023/09/17 08:06:25;;;;;;;205.23;67.72;;;;;;;;;;5016918;28;19924;-72
2023/09/17 08:08:51;;;;;;;191.90;64.03;;;;;;;;;;5015963;28;20088;-71
2023/09/17 08:11:19;;;;;;;203.40;65.30;;;;;;;;;;5016742;28;20132;-72
2023/09/17 08:13:47;;;;;;;206.27;68.40;;;;;;;;;;5015367;28;20281;-72
2023/09/17 08:16:14;;;;;;;207.18;67.03;;;;;;;;;;4999469;28;20049;-73
2023/09/17 08:18:41;;;;;;;;;;;;;;;;;;5016783;28;20050;-73
2023/09/17 08:21:07;;;;;;;184.02;61.03;;;;;;;;;;5016277;28;19924;-74
2023/09/17 08:23:33;;;;;;;179.53;62.10;;;;;;;;;;5016416;28;20042;-73
2023/09/17 08:25:59;;;;;;;186.93;67.95;;;;;;;;;;5015772;28;20490;-73
2023/09/17 08:28:27;;;;;;;197.27;67.27;;;;;;;;;;5016538;28;20061;-73
2023/09/17 08:30:53;;;;;;;184.48;66.53;;;;;;;;;;5015777;28;20041;-73
2023/09/17 08:33:20;;;;;;;183.83;67.43;;;;;;;;;;5015913;28;20504;-72
2023/09/17 08:35:46;;;;;;;181.77;66.10;;;;;;;;;;4999289;28;20125;-72
2023/09/17 08:38:12;;;;;;;180.85;70.30;;;;;;;;;;5016050;28;20049;-72
2023/09/17 08:40:39;;;;;;;174.93;64.00;;;;;;;;;;5016100;28;20405;-73
2023/09/17 08:43:05;;;;;;;167.73;60.30;;;;;;;;;;5015912;28;20049;-73
2023/09/17 08:45:32;;;;;;;167.02;59.15;;;;;;;;;;5016094;28;20064;-72
2023/09/17 08:47:58;;;;;;;160.73;60.63;;;;;;;;;;5014922;28;20057;-73
2023/09/17 08:50:25;;;;;;;161.63;59.00;;;;;;;;;;5016744;28;20398;-73
2023/09/17 08:52:55;;;;;;;151.68;57.80;;;;;;;;;;5014753;28;20041;-76
2023/09/17 08:55:21;;;;;;;150.90;62.60;;;;;;;;;;5014565;28;20373;-77
2023/09/17 08:57:52;;;;;;;147.52;56.80;;;;;;;;;;5015708;28;20466;-74
2023/09/17 09:00:20;;;;;;;141.48;56.67;;;;;;;;;;5015751;28;20080;-74
2023/09/17 09:02:52;;;;;;;150.60;57.65;;;;;;;;;;5016081;28;20045;-73
2023/09/17 09:05:20;;;;;;;143.38;55.83;;;;;;;;;;5015452;28;20104;-73
2023/09/17 09:07:47;;;;;;;153.63;60.40;;;;;;;;;;5014353;28;20045;-72
2023/09/17 09:10:14;;;;;;;150.20;59.78;;;;;;;;;;5015580;28;20474;-72
2023/09/17 09:12:42;;;;;;;141.45;56.17;;;;;;;;;;5015458;28;20049;-72
2023/09/17 09:15:10;;;;;;;141.23;55.58;;;;;;;;;;5015237;28;20132;-73
2023/09/17 09:17:36;;;;;;;145.35;57.15;;;;;;;;;;5015359;28;20046;-73
2023/09/17 09:20:04;;;;;;;141.90;56.40;;;;;;;;;;5015273;28;20076;-73
2023/09/17 09:22:31;;;;;;;142.07;56.20;;;;;;;;;;5014054;28;20097;-72
2023/09/17 09:24:57;;;;;;;136.10;56.67;;;;;;;;;;5015116;28;20045;-72
2023/09/17 09:27:23;;;;;;;136.18;54.85;;;;;;;;;;5015193;28;20104;-73
2023/09/17 09:29:49;;;;;;;139.85;58.92;;;;;;;;;;5014285;28;20068;-73
2023/09/17 09:32:17;;;;;;;133.30;56.97;;;;;;;;;;5014193;28;20091;-74
2023/09/17 09:34:44;;;;;;;140.45;55.63;;;;;;;;;;5014843;28;20132;-73
2023/09/17 09:37:10;;;;;;;134.65;57.65;;;;;;;;;;5014685;28;20128;-73
2023/09/17 09:39:37;;;;;;;134.35;56.03;;;;;;;;;;5013422;28;20046;-73
2023/09/17 09:42:05;;;;;;;129.55;52.80;;;;;;;;;;5014034;28;20523;-73
2023/09/17 09:44:31;;;;;;;132.38;54.55;;;;;;;;;;5014421;28;20042;-74
2023/09/17 09:47:02;;;;;;;130.57;53.38;;;;;;;;;;5013891;28;20459;-74
2023/09/17 09:49:28;;;;;;;128.38;52.58;;;;;;;;;;5014699;28;20057;-74
2023/09/17 09:51:58;;;;;;;128.13;53.35;;;;;;;;;;5014767;28;20045;-74
2023/09/17 09:54:24;;;;;;;130.27;52.78;;;;;;;;;;5013798;28;20046;-74
2023/09/17 09:56:52;;;;;;;132.53;53.77;;;;;;;;;;5013808;28;20046;-75
2023/09/17 09:59:20;;;;;;;126.03;53.22;;;;;;;;;;5013792;28;20416;-74
2023/09/17 10:01:46;;;;;;;134.68;53.47;;;;;;;;;;5015320;28;20046;-74
2023/09/17 10:04:12;;;;;;;126.70;53.63;;;;;;;;;;5015059;28;20099;-73
2023/09/17 10:06:40;;;;;;;126.70;52.78;;;;;;;;;;5015263;28;20125;-75
2023/09/17 10:09:07;;;;;;;133.65;57.42;;;;;;;;;;5014372;28;20104;-75
2023/09/17 10:11:33;;;;;;;;;;;;;;;;;;5014682;28;20045;-74
2023/09/17 10:14:03;;;;;;;131.43;52.90;;;;;;;;;;5014153;28;19928;-74
2023/09/17 10:16:30;;;;;;;131.52;54.15;;;;;;;;;;5014880;28;20041;-74
2023/09/17 10:18:56;;;;;;;125.82;53.85;;;;;;;;;;5014406;28;20046;-75
2023/09/17 10:21:23;;;;;;;134.88;54.63;;;;;;;;;;5014207;28;20505;-73
2023/09/17 10:23:51;;;;;;;145.50;59.00;;;;;;;;;;5013108;28;20042;-73
2023/09/17 10:26:20;;;;;;;124.80;52.65;;;;;;;;;;5013816;28;20446;-72
2023/09/17 10:28:47;;;;;;;131.07;54.75;;;;;;;;;;5013390;28;20077;-73
2023/09/17 10:31:15;;;;;;;124.68;52.10;;;;;;;;;;5014823;28;20413;-73
2023/09/17 10:33:44;;;;;;;129.73;51.28;;;;;;;;;;5014501;28;20046;-74
2023/09/17 10:36:11;;;;;;;120.38;49.83;;;;;;;;;;5013974;28;20060;-74
2023/09/17 10:38:39;;;;;;;126.00;52.38;;;;;;;;;;5012774;28;20382;-74
2023/09/17 10:41:06;;;;;;;125.28;52.13;;;;;;;;;;5013984;28;20119;-74
2023/09/17 10:43:36;;;;;;;123.15;50.90;;;;;;;;;;4997224;28;20180;-74
2023/09/17 10:46:06;;;;;;;130.68;53.20;;;;;;;;;;5012735;28;20444;-74
2023/09/17 10:48:32;;;;;;;122.53;51.78;;;;;;;;;;5013716;28;20542;-73
2023/09/17 10:50:59;;;;;;;117.95;49.72;;;;;;;;;;5013859;28;20054;-74
2023/09/17 10:53:26;;;;;;;126.32;51.03;;;;;;;;;;5014234;28;20038;-74
2023/09/17 10:55:57;;;;;;;128.90;51.78;;;;;;;;;;5014358;28;20042;-74
2023/09/17 10:58:34;;;;;;;126.65;51.33;;;;;;;;;;5013302;28;20048;-74
2023/09/17 11:01:01;;;;;;;126.78;51.58;;;;;;;;;;5014254;28;20046;-75
2023/09/17 11:03:29;;;;;;;129.52;53.47;;;;;;;;;;5013363;28;20470;-75
2023/09/17 11:05:56;;;;;;;143.48;57.67;;;;;;;;;;5013666;28;20129;-75
2023/09/17 11:08:22;;;;;;;131.82;53.80;;;;;;;;;;5012353;28;20168;-74
2023/09/17 11:10:48;;;;;;;122.47;52.63;;;;;;;;;;5013581;28;20085;-74
2023/09/17 11:13:15;;;;;;;138.63;55.50;;;;;;;;;;5014122;28;20049;-74
2023/09/17 11:15:44;;;;;;;133.60;55.85;;;;;;;;;;5012366;28;20150;-75
2023/09/17 11:18:11;;;;;;;139.93;56.05;;;;;;;;;;5013702;28;20049;-75
2023/09/17 11:20:38;;;;;;;;;;;;;;;;;;5012886;28;20192;-75
2023/09/17 11:23:04;;;;;;;133.50;53.58;;;;;;;;;;5013412;28;19997;-75
2023/09/17 11:25:34;;;;;;;130.95;56.22;;;;;;;;;;5013393;28;20033;-74
2023/09/17 11:28:09;;;;;;;129.98;54.55;;;;;;;;;;5013423;28;20060;-74
2023/09/17 11:30:56;;;;;;;121.20;52.72;;;;;;;;;;5012537;28;20052;-75
2023/09/17 11:33:22;;;;;;;120.65;51.90;;;;;;;;;;5013726;28;20199;-74
2023/09/17 11:35:49;;;;;;;116.80;49.45;;;;;;;;;;5013096;28;20132;-75
2023/09/17 11:38:15;;;;;;;119.30;50.03;;;;;;;;;;5013895;28;20364;-75
2023/09/17 11:40:42;;;;;;;121.82;50.45;;;;;;;;;;5013983;28;20049;-75
2023/09/17 11:43:08;;;;;;;116.78;48.17;;;;;;;;;;5013904;28;20038;-74
2023/09/17 11:45:35;;;;;;;115.88;48.70;;;;;;;;;;5013435;28;20517;-74
2023/09/17 11:48:05;;;;;;;119.47;49.53;;;;;;;;;;5013202;28;20042;-74
2023/09/17 11:50:31;;;;;;;117.15;50.63;;;;;;;;;;5012843;28;20609;-74
2023/09/17 11:53:06;;;;;;;118.95;50.88;;;;;;;;;;5013253;28;20045;-73
2023/09/17 11:55:36;;;;;;;121.57;48.58;;;;;;;;;;5012379;28;20378;-74
2023/09/17 11:58:18;;;;;;;111.78;46.95;;;;;;;;;;5013610;28;20417;-74
2023/09/17 12:00:44;;;;;;;111.22;47.40;;;;;;;;;;5011841;28;20048;-71
2023/09/17 12:03:11;;;;;;;108.60;46.70;;;;;;;;;;5012137;28;20048;-73
2023/09/17 12:05:39;;;;;;;113.65;47.47;;;;;;;;;;4998572;28;20454;-72
2023/09/17 12:08:06;;;;;;;108.00;47.30;;;;;;;;;;5016778;28;20099;-74
2023/09/17 12:10:37;;;;;;;112.55;47.83;;;;;;;;;;5015333;28;20057;-72
2023/09/17 12:13:04;;;;;;;111.65;47.15;;;;;;;;;;5017145;28;20409;-73
2023/09/17 12:15:31;;;;;;;106.57;46.88;;;;;;;;;;5016054;28;20466;-73
2023/09/17 12:17:58;;;;;;;108.00;47.05;;;;;;;;;;5016969;28;20125;-73
2023/09/17 12:23:16;;;;;;;116.63;49.80;;;;;;;;;;5017228;28;20064;-73
2023/09/17 12:25:45;;;;;;;121.75;50.45;;;;;;;;;;5015385;28;20046;-74
2023/09/17 12:28:11;;;;;;;122.65;51.05;;;;;;;;;;5016364;28;20061;-72
2023/09/17 12:30:38;;;;;;;123.65;50.47;;;;;;;;;;5015062;28;20052;-72
2023/09/17 12:33:04;;;;;;;121.82;53.65;;;;;;;;;;5016278;28;20469;-72
2023/09/17 12:35:30;;;;;;;133.88;55.42;;;;;;;;;;5015802;28;20042;-72
2023/09/17 12:37:57;;;;;;;136.38;59.33;;;;;;;;;;5015178;28;20042;-73
2023/09/17 12:40:23;;;;;;;;;;;;;;;;;;5016709;28;20049;-73
2023/09/17 12:42:49;;;;;;;143.20;58.17;;;;;;;;;;5016568;28;19921;-73
2023/09/17 12:45:16;;;;;;;148.60;59.65;;;;;;;;;;5014728;28;20041;-74
2023/09/17 12:47:44;;;;;;;141.57;60.08;;;;;;;;;;5015984;28;20100;-73
2023/09/17 12:50:10;;;;;;;141.55;59.25;;;;;;;;;;5015875;28;20470;-73
2023/09/17 12:52:36;;;;;;;148.05;61.90;;;;;;;;;;5015842;28;20042;-73
2023/09/17 12:55:03;;;;;;;148.05;62.42;;;;;;;;;;5015907;28;20045;-74
2023/09/17 12:57:30;;;;;;;155.38;61.65;;;;;;;;;;4998564;28;20103;-73
2023/09/17 12:59:56;;;;;;;148.50;60.40;;;;;;;;;;5016246;28;20046;-74
2023/09/17 13:02:29;;;;;;;133.38;56.38;;;;;;;;;;5015711;28;20468;-72
2023/09/17 13:04:55;;;;;;;145.60;59.80;;;;;;;;;;5015511;28;20034;-73
2023/09/17 13:07:22;;;;;;;140.05;59.45;;;;;;;;;;5014690;28;20045;-73
2023/09/17 13:09:49;;;;;;;143.40;54.80;;;;;;;;;;5015161;28;20101;-73
2023/09/17 13:12:16;;;;;;;139.77;55.45;;;;;;;;;;5015559;28;20045;-72
2023/09/17 13:14:42;;;;;;;138.93;53.83;;;;;;;;;;5015433;28;20042;-72
2023/09/17 13:17:09;;;;;;;129.50;54.25;;;;;;;;;;5013835;28;20399;-74
2023/09/17 13:19:36;;;;;;;140.27;55.40;;;;;;;;;;5015203;28;20045;-73
2023/09/17 13:22:02;;;;;;;137.98;55.92;;;;;;;;;;5015243;28;20041;-72
2023/09/17 13:24:30;;;;;;;150.43;56.30;;;;;;;;;;4998309;28;20056;-73
2023/09/17 13:27:03;;;;;;;148.32;56.22;;;;;;;;;;5013982;28;20125;-73
2023/09/17 13:29:41;;;;;;;153.52;57.63;;;;;;;;;;5015100;28;20046;-73
2023/09/17 13:32:11;;;;;;;148.00;55.13;;;;;;;;;;5015472;28;20049;-74
2023/09/17 13:34:38;;;;;;;143.70;56.28;;;;;;;;;;5014994;28;20038;-74
2023/09/17 13:37:05;;;;;;;138.48;54.95;;;;;;;;;;5015035;28;20046;-73
2023/09/17 13:39:31;;;;;;;153.98;56.13;;;;;;;;;;5013877;28;20046;-73
2023/09/17 13:41:57;;;;;;;142.88;54.83;;;;;;;;;;5014935;28;20042;-73
2023/09/17 13:44:23;;;;;;;146.57;54.67;;;;;;;;;;5014177;28;20417;-73
2023/09/17 13:46:50;;;;;;;134.00;53.40;;;;;;;;;;5014861;28;20081;-73
2023/09/17 13:49:16;;;;;;;131.18;52.55;;;;;;;;;;5014880;28;20500;-74
2023/09/17 13:51:42;;;;;;;134.60;53.03;;;;;;;;;;5014670;28;20048;-73
2023/09/17 13:54:08;;;;;;;138.20;53.58;;;;;;;;;;5014758;28;20042;-73
2023/09/17 13:56:34;;;;;;;129.68;52.20;;;;;;;;;;5014593;28;20100;-73
2023/09/17 13:59:00;;;;;;;125.10;51.47;;;;;;;;;;5013691;28;20126;-74
2023/09/17 14:01:26;;;;;;;126.40;50.55;;;;;;;;;;5014383;28;20539;-72
2023/09/17 14:03:52;;;;;;;118.38;48.33;;;;;;;;;;5013385;28;20501;-73
2023/09/17 14:06:18;;;;;;;119.53;48.83;;;;;;;;;;5014553;28;20046;-74
2023/09/17 14:08:45;;;;;;;113.60;49.00;;;;;;;;;;5014547;28;20045;-74
2023/09/17 14:11:11;;;;;;;121.43;48.35;;;;;;;;;;4996452;28;20054;-73